sensor_id;sensor_type;location;lat;lon;timestamp;P1;durP1;ratioP1;P2;durP2;ratioP2
22697;SDS011;11516;51.612;7.510;2023-05-10T00:00:32;0.60;;;0.50;;
22697;SDS011;11516;51.612;7.510;2023-05-10T00:02:58;0.10;;;0.10;;
22697;SDS011;11516;51.612;7.510;2023-05-10T00:05:23;0.20;;;0.20;;
22697;SDS011;11516;51.612;7.510;2023-05-10T00:07:49;0.30;;;0.27;;
22697;SDS011;11516;51.612;7.510;2023-05-10T00:10:14;0.20;;;0.20;;
22697;SDS011;11516;51.612;7.510;2023-05-10T00:12:40;0.60;;;0.60;;
22697;SDS011;11516;51.612;7.510;2023-05-10T00:15:06;0.35;;;0.35;;
22697;SDS011;11516;51.612;7.510;2023-05-10T00:17:32;0.20;;;0.20;;
22697;SDS011;11516;51.612;7.510;2023-05-10T00:19:58;0.20;;;0.20;;
22697;SDS011;11516;51.612;7.510;2023-05-10T00:22:23;0.45;;;0.45;;
22697;SDS011;11516;51.612;7.510;2023-05-10T00:24:49;1.10;;;0.70;;
22697;SDS011;11516;51.612;7.510;2023-05-10T00:27:14;0.30;;;0.30;;
22697;SDS011;11516;51.612;7.510;2023-05-10T00:29:40;0.35;;;0.35;;
22697;SDS011;11516;51.612;7.510;2023-05-10T00:32:05;0.90;;;0.70;;
22697;SDS011;11516;51.612;7.510;2023-05-10T00:34:31;0.50;;;0.45;;
22697;SDS011;11516;51.612;7.510;2023-05-10T00:36:57;0.40;;;0.40;;
22697;SDS011;11516;51.612;7.510;2023-05-10T00:39:22;0.37;;;0.37;;
22697;SDS011;11516;51.612;7.510;2023-05-10T00:41:48;0.10;;;0.10;;
22697;SDS011;11516;51.612;7.510;2023-05-10T00:44:13;0.37;;;0.37;;
22697;SDS011;11516;51.612;7.510;2023-05-10T00:46:39;0.57;;;0.50;;
22697;SDS011;11516;51.612;7.510;2023-05-10T00:49:06;0.10;;;0.10;;
22697;SDS011;11516;51.612;7.510;2023-05-10T00:51:31;0.28;;;0.28;;
22697;SDS011;11516;51.612;7.510;2023-05-10T00:53:57;0.38;;;0.38;;
22697;SDS011;11516;51.612;7.510;2023-05-10T00:56:23;0.10;;;0.10;;
22697;SDS011;11516;51.612;7.510;2023-05-10T00:58:50;0.10;;;0.10;;
22697;SDS011;11516;51.612;7.510;2023-05-10T01:01:15;0.60;;;0.30;;
22697;SDS011;11516;51.612;7.510;2023-05-10T01:03:41;0.10;;;0.10;;
22697;SDS011;11516;51.612;7.510;2023-05-10T01:06:07;0.50;;;0.22;;
22697;SDS011;11516;51.612;7.510;2023-05-10T01:08:34;0.00;;;0.00;;
22697;SDS011;11516;51.612;7.510;2023-05-10T01:11:00;0.73;;;0.73;;
22697;SDS011;11516;51.612;7.510;2023-05-10T01:15:58;0.22;;;0.22;;
22697;SDS011;11516;51.612;7.510;2023-05-10T01:18:26;1.30;;;0.68;;
22697;SDS011;11516;51.612;7.510;2023-05-10T01:20:57;0.40;;;0.30;;
22697;SDS011;11516;51.612;7.510;2023-05-10T01:23:44;0.30;;;0.30;;
22697;SDS011;11516;51.612;7.510;2023-05-10T01:34:46;0.80;;;0.80;;
22697;SDS011;11516;51.612;7.510;2023-05-10T01:37:37;0.22;;;0.22;;
22697;SDS011;11516;51.612;7.510;2023-05-10T01:40:30;0.68;;;0.45;;
22697;SDS011;11516;51.612;7.510;2023-05-10T01:43:03;0.43;;;0.43;;
22697;SDS011;11516;51.612;7.510;2023-05-10T01:45:37;0.60;;;0.50;;
22697;SDS011;11516;51.612;7.510;2023-05-10T01:48:40;0.27;;;0.27;;
22697;SDS011;11516;51.612;7.510;2023-05-10T01:51:12;0.87;;;0.87;;
22697;SDS011;11516;51.612;7.510;2023-05-10T01:53:44;0.40;;;0.40;;
22697;SDS011;11516;51.612;7.510;2023-05-10T01:56:12;0.93;;;0.93;;
22697;SDS011;11516;51.612;7.510;2023-05-10T01:58:39;0.47;;;0.47;;
22697;SDS011;11516;51.612;7.510;2023-05-10T02:01:08;2.17;;;0.68;;
22697;SDS011;11516;51.612;7.510;2023-05-10T02:03:35;0.57;;;0.57;;
22697;SDS011;11516;51.612;7.510;2023-05-10T02:06:02;0.28;;;0.28;;
22697;SDS011;11516;51.612;7.510;2023-05-10T02:08:29;3.47;;;1.27;;
22697;SDS011;11516;51.612;7.510;2023-05-10T02:10:56;1.70;;;0.90;;
22697;SDS011;11516;51.612;7.510;2023-05-10T02:13:23;0.77;;;0.77;;
22697;SDS011;11516;51.612;7.510;2023-05-10T02:15:50;1.45;;;1.35;;
22697;SDS011;11516;51.612;7.510;2023-05-10T02:18:18;1.60;;;1.20;;
22697;SDS011;11516;51.612;7.510;2023-05-10T02:20:44;0.27;;;0.27;;
22697;SDS011;11516;51.612;7.510;2023-05-10T02:23:11;2.92;;;1.20;;
22697;SDS011;11516;51.612;7.510;2023-05-10T02:25:38;9.60;;;0.50;;
22697;SDS011;11516;51.612;7.510;2023-05-10T02:28:04;1.17;;;1.05;;
22697;SDS011;11516;51.612;7.510;2023-05-10T02:30:32;0.28;;;0.28;;
22697;SDS011;11516;51.612;7.510;2023-05-10T02:32:59;0.95;;;0.95;;
22697;SDS011;11516;51.612;7.510;2023-05-10T02:35:26;0.43;;;0.43;;
22697;SDS011;11516;51.612;7.510;2023-05-10T02:37:53;0.40;;;0.40;;
22697;SDS011;11516;51.612;7.510;2023-05-10T02:40:19;0.88;;;0.30;;
22697;SDS011;11516;51.612;7.510;2023-05-10T02:42:47;0.23;;;0.23;;
22697;SDS011;11516;51.612;7.510;2023-05-10T02:45:19;0.50;;;0.40;;
22697;SDS011;11516;51.612;7.510;2023-05-10T02:47:48;0.00;;;0.00;;
22697;SDS011;11516;51.612;7.510;2023-05-10T02:50:13;0.05;;;0.05;;
22697;SDS011;11516;51.612;7.510;2023-05-10T02:52:40;0.10;;;0.10;;
22697;SDS011;11516;51.612;7.510;2023-05-10T02:55:11;0.10;;;0.10;;
22697;SDS011;11516;51.612;7.510;2023-05-10T02:57:41;1.40;;;0.80;;
22697;SDS011;11516;51.612;7.510;2023-05-10T03:00:10;0.38;;;0.38;;
22697;SDS011;11516;51.612;7.510;2023-05-10T03:02:36;1.30;;;0.63;;
22697;SDS011;11516;51.612;7.510;2023-05-10T03:05:01;0.17;;;0.17;;
22697;SDS011;11516;51.612;7.510;2023-05-10T03:07:28;0.52;;;0.38;;
22697;SDS011;11516;51.612;7.510;2023-05-10T03:09:54;0.03;;;0.03;;
22697;SDS011;11516;51.612;7.510;2023-05-10T03:15:37;0.20;;;0.20;;
22697;SDS011;11516;51.612;7.510;2023-05-10T03:18:15;0.10;;;0.10;;
22697;SDS011;11516;51.612;7.510;2023-05-10T03:20:47;0.00;;;0.00;;
22697;SDS011;11516;51.612;7.510;2023-05-10T03:23:30;0.10;;;0.10;;
22697;SDS011;11516;51.612;7.510;2023-05-10T03:26:09;0.00;;;0.00;;
22697;SDS011;11516;51.612;7.510;2023-05-10T03:28:36;0.00;;;0.00;;
22697;SDS011;11516;51.612;7.510;2023-05-10T03:31:02;0.00;;;0.00;;
22697;SDS011;11516;51.612;7.510;2023-05-10T03:33:30;0.00;;;0.00;;
22697;SDS011;11516;51.612;7.510;2023-05-10T03:35:56;0.00;;;0.00;;
22697;SDS011;11516;51.612;7.510;2023-05-10T03:38:22;0.20;;;0.20;;
22697;SDS011;11516;51.612;7.510;2023-05-10T03:40:47;0.00;;;0.00;;
22697;SDS011;11516;51.612;7.510;2023-05-10T03:43:13;0.30;;;0.20;;
22697;SDS011;11516;51.612;7.510;2023-05-10T03:45:38;0.50;;;0.50;;
22697;SDS011;11516;51.612;7.510;2023-05-10T03:48:04;0.23;;;0.17;;
22697;SDS011;11516;51.612;7.510;2023-05-10T03:50:30;0.30;;;0.30;;
22697;SDS011;11516;51.612;7.510;2023-05-10T03:52:56;0.10;;;0.10;;
22697;SDS011;11516;51.612;7.510;2023-05-10T03:55:22;0.20;;;0.10;;
22697;SDS011;11516;51.612;7.510;2023-05-10T03:57:48;0.03;;;0.00;;
22697;SDS011;11516;51.612;7.510;2023-05-10T04:00:14;0.55;;;0.55;;
22697;SDS011;11516;51.612;7.510;2023-05-10T04:02:40;2.15;;;1.10;;
22697;SDS011;11516;51.612;7.510;2023-05-10T04:05:06;0.50;;;0.20;;
22697;SDS011;11516;51.612;7.510;2023-05-10T04:07:32;0.70;;;0.70;;
22697;SDS011;11516;51.612;7.510;2023-05-10T04:09:57;1.00;;;0.70;;
22697;SDS011;11516;51.612;7.510;2023-05-10T04:12:23;0.03;;;0.03;;
22697;SDS011;11516;51.612;7.510;2023-05-10T04:14:48;0.40;;;0.20;;
22697;SDS011;11516;51.612;7.510;2023-05-10T04:17:14;0.90;;;0.60;;
22697;SDS011;11516;51.612;7.510;2023-05-10T04:19:40;0.10;;;0.10;;
22697;SDS011;11516;51.612;7.510;2023-05-10T04:22:05;0.20;;;0.20;;
22697;SDS011;11516;51.612;7.510;2023-05-10T04:24:31;0.20;;;0.20;;
22697;SDS011;11516;51.612;7.510;2023-05-10T04:26:56;0.55;;;0.25;;
22697;SDS011;11516;51.612;7.510;2023-05-10T04:29:22;0.10;;;0.10;;
22697;SDS011;11516;51.612;7.510;2023-05-10T04:31:47;0.20;;;0.20;;
22697;SDS011;11516;51.612;7.510;2023-05-10T04:34:13;1.23;;;1.03;;
22697;SDS011;11516;51.612;7.510;2023-05-10T04:36:39;0.77;;;0.77;;
22697;SDS011;11516;51.612;7.510;2023-05-10T04:39:04;0.45;;;0.45;;
22697;SDS011;11516;51.612;7.510;2023-05-10T04:41:30;0.50;;;0.50;;
22697;SDS011;11516;51.612;7.510;2023-05-10T04:43:56;0.68;;;0.68;;
22697;SDS011;11516;51.612;7.510;2023-05-10T04:46:21;0.70;;;0.70;;
22697;SDS011;11516;51.612;7.510;2023-05-10T04:48:47;0.37;;;0.37;;
22697;SDS011;11516;51.612;7.510;2023-05-10T04:51:12;0.87;;;0.87;;
22697;SDS011;11516;51.612;7.510;2023-05-10T04:53:38;1.50;;;0.67;;
22697;SDS011;11516;51.612;7.510;2023-05-10T04:56:04;1.60;;;0.70;;
22697;SDS011;11516;51.612;7.510;2023-05-10T04:58:30;1.67;;;0.80;;
22697;SDS011;11516;51.612;7.510;2023-05-10T05:00:55;0.80;;;0.80;;
22697;SDS011;11516;51.612;7.510;2023-05-10T05:03:21;1.40;;;1.30;;
22697;SDS011;11516;51.612;7.510;2023-05-10T05:05:47;1.05;;;0.95;;
22697;SDS011;11516;51.612;7.510;2023-05-10T05:08:12;1.45;;;1.35;;
22697;SDS011;11516;51.612;7.510;2023-05-10T05:10:38;1.00;;;1.00;;
22697;SDS011;11516;51.612;7.510;2023-05-10T05:13:03;1.70;;;1.60;;
22697;SDS011;11516;51.612;7.510;2023-05-10T05:15:29;5.43;;;1.33;;
22697;SDS011;11516;51.612;7.510;2023-05-10T05:17:55;3.75;;;2.22;;
22697;SDS011;11516;51.612;7.510;2023-05-10T05:20:21;2.75;;;2.10;;
22697;SDS011;11516;51.612;7.510;2023-05-10T05:22:47;3.87;;;1.93;;
22697;SDS011;11516;51.612;7.510;2023-05-10T05:25:12;1.77;;;1.40;;
22697;SDS011;11516;51.612;7.510;2023-05-10T05:27:38;0.90;;;0.90;;
22697;SDS011;11516;51.612;7.510;2023-05-10T05:30:03;3.70;;;2.05;;
22697;SDS011;11516;51.612;7.510;2023-05-10T05:32:30;4.35;;;3.08;;
22697;SDS011;11516;51.612;7.510;2023-05-10T05:34:55;2.00;;;1.73;;
22697;SDS011;11516;51.612;7.510;2023-05-10T05:37:21;3.85;;;2.42;;
22697;SDS011;11516;51.612;7.510;2023-05-10T05:39:48;1.45;;;1.35;;
22697;SDS011;11516;51.612;7.510;2023-05-10T05:42:13;1.83;;;1.73;;
22697;SDS011;11516;51.612;7.510;2023-05-10T05:44:41;2.72;;;1.98;;
22697;SDS011;11516;51.612;7.510;2023-05-10T05:47:06;4.40;;;2.67;;
22697;SDS011;11516;51.612;7.510;2023-05-10T05:49:32;2.63;;;2.50;;
22697;SDS011;11516;51.612;7.510;2023-05-10T05:51:58;2.70;;;2.53;;
22697;SDS011;11516;51.612;7.510;2023-05-10T05:54:25;5.05;;;2.30;;
22697;SDS011;11516;51.612;7.510;2023-05-10T05:56:53;2.38;;;2.17;;
22697;SDS011;11516;51.612;7.510;2023-05-10T05:59:25;2.57;;;2.37;;
22697;SDS011;11516;51.612;7.510;2023-05-10T06:01:51;3.25;;;2.80;;
22697;SDS011;11516;51.612;7.510;2023-05-10T06:04:17;3.55;;;3.10;;
22697;SDS011;11516;51.612;7.510;2023-05-10T06:06:43;2.45;;;2.20;;
22697;SDS011;11516;51.612;7.510;2023-05-10T06:09:08;4.28;;;3.33;;
22697;SDS011;11516;51.612;7.510;2023-05-10T06:11:35;5.28;;;3.80;;
22697;SDS011;11516;51.612;7.510;2023-05-10T06:14:01;2.08;;;1.98;;
22697;SDS011;11516;51.612;7.510;2023-05-10T06:16:28;6.75;;;2.83;;
22697;SDS011;11516;51.612;7.510;2023-05-10T06:18:54;3.50;;;2.60;;
22697;SDS011;11516;51.612;7.510;2023-05-10T06:21:20;5.10;;;4.07;;
22697;SDS011;11516;51.612;7.510;2023-05-10T06:23:46;5.50;;;2.83;;
22697;SDS011;11516;51.612;7.510;2023-05-10T06:26:11;4.67;;;3.07;;
22697;SDS011;11516;51.612;7.510;2023-05-10T06:28:38;3.22;;;2.92;;
22697;SDS011;11516;51.612;7.510;2023-05-10T06:31:04;3.78;;;3.47;;
22697;SDS011;11516;51.612;7.510;2023-05-10T06:33:30;3.67;;;2.85;;
22697;SDS011;11516;51.612;7.510;2023-05-10T06:35:56;3.42;;;2.47;;
22697;SDS011;11516;51.612;7.510;2023-05-10T06:38:22;4.60;;;4.20;;
22697;SDS011;11516;51.612;7.510;2023-05-10T06:40:47;5.53;;;4.07;;
22697;SDS011;11516;51.612;7.510;2023-05-10T06:43:13;3.72;;;2.78;;
22697;SDS011;11516;51.612;7.510;2023-05-10T06:45:39;6.50;;;2.92;;
22697;SDS011;11516;51.612;7.510;2023-05-10T06:48:05;4.82;;;3.35;;
22697;SDS011;11516;51.612;7.510;2023-05-10T06:50:31;4.23;;;2.63;;
22697;SDS011;11516;51.612;7.510;2023-05-10T06:52:57;6.27;;;3.97;;
22697;SDS011;11516;51.612;7.510;2023-05-10T06:55:22;4.03;;;3.35;;
22697;SDS011;11516;51.612;7.510;2023-05-10T06:57:48;4.10;;;3.63;;
22697;SDS011;11516;51.612;7.510;2023-05-10T07:00:15;3.42;;;3.13;;
22697;SDS011;11516;51.612;7.510;2023-05-10T07:02:41;4.00;;;3.65;;
22697;SDS011;11516;51.612;7.510;2023-05-10T07:05:07;3.33;;;2.13;;
22697;SDS011;11516;51.612;7.510;2023-05-10T07:07:33;9.38;;;3.45;;
22697;SDS011;11516;51.612;7.510;2023-05-10T07:09:58;8.13;;;2.78;;
22697;SDS011;11516;51.612;7.510;2023-05-10T07:12:24;4.45;;;4.00;;
22697;SDS011;11516;51.612;7.510;2023-05-10T07:14:50;6.93;;;2.90;;
22697;SDS011;11516;51.612;7.510;2023-05-10T07:17:15;6.55;;;3.72;;
22697;SDS011;11516;51.612;7.510;2023-05-10T07:19:41;5.75;;;4.13;;
22697;SDS011;11516;51.612;7.510;2023-05-10T07:22:06;3.92;;;3.53;;
22697;SDS011;11516;51.612;7.510;2023-05-10T07:24:32;3.47;;;3.08;;
22697;SDS011;11516;51.612;7.510;2023-05-10T07:26:58;5.10;;;2.60;;
22697;SDS011;11516;51.612;7.510;2023-05-10T07:29:24;2.25;;;2.08;;
22697;SDS011;11516;51.612;7.510;2023-05-10T07:31:50;5.35;;;3.67;;
22697;SDS011;11516;51.612;7.510;2023-05-10T07:34:15;6.67;;;4.13;;
22697;SDS011;11516;51.612;7.510;2023-05-10T07:36:41;2.83;;;2.55;;
22697;SDS011;11516;51.612;7.510;2023-05-10T07:39:06;6.03;;;3.63;;
22697;SDS011;11516;51.612;7.510;2023-05-10T07:41:32;9.57;;;3.28;;
22697;SDS011;11516;51.612;7.510;2023-05-10T07:43:57;3.63;;;3.20;;
22697;SDS011;11516;51.612;7.510;2023-05-10T07:46:23;2.97;;;2.77;;
22697;SDS011;11516;51.612;7.510;2023-05-10T07:48:48;6.73;;;3.40;;
22697;SDS011;11516;51.612;7.510;2023-05-10T07:51:14;4.07;;;2.37;;
22697;SDS011;11516;51.612;7.510;2023-05-10T07:53:40;2.60;;;2.40;;
22697;SDS011;11516;51.612;7.510;2023-05-10T07:56:24;4.17;;;2.90;;
22697;SDS011;11516;51.612;7.510;2023-05-10T07:58:52;5.13;;;3.30;;
22697;SDS011;11516;51.612;7.510;2023-05-10T08:01:19;5.55;;;3.00;;
22697;SDS011;11516;51.612;7.510;2023-05-10T08:03:45;4.85;;;4.07;;
22697;SDS011;11516;51.612;7.510;2023-05-10T08:06:10;6.93;;;5.13;;
22697;SDS011;11516;51.612;7.510;2023-05-10T08:08:36;3.88;;;2.85;;
22697;SDS011;11516;51.612;7.510;2023-05-10T08:11:03;4.00;;;3.30;;
22697;SDS011;11516;51.612;7.510;2023-05-10T08:13:28;4.60;;;4.20;;
22697;SDS011;11516;51.612;7.510;2023-05-10T08:15:54;4.53;;;3.50;;
22697;SDS011;11516;51.612;7.510;2023-05-10T08:18:19;4.53;;;4.10;;
22697;SDS011;11516;51.612;7.510;2023-05-10T08:20:45;8.20;;;4.87;;
22697;SDS011;11516;51.612;7.510;2023-05-10T08:23:14;4.73;;;3.23;;
22697;SDS011;11516;51.612;7.510;2023-05-10T08:25:39;4.13;;;3.45;;
22697;SDS011;11516;51.612;7.510;2023-05-10T08:28:05;4.82;;;2.88;;
22697;SDS011;11516;51.612;7.510;2023-05-10T08:30:30;7.10;;;3.23;;
22697;SDS011;11516;51.612;7.510;2023-05-10T08:32:56;6.70;;;3.92;;
22697;SDS011;11516;51.612;7.510;2023-05-10T08:35:21;5.07;;;4.05;;
22697;SDS011;11516;51.612;7.510;2023-05-10T08:37:47;7.20;;;4.82;;
22697;SDS011;11516;51.612;7.510;2023-05-10T08:40:13;5.97;;;3.83;;
22697;SDS011;11516;51.612;7.510;2023-05-10T08:42:40;5.20;;;4.07;;
22697;SDS011;11516;51.612;7.510;2023-05-10T08:45:12;7.03;;;3.33;;
22697;SDS011;11516;51.612;7.510;2023-05-10T08:47:40;5.13;;;3.67;;
22697;SDS011;11516;51.612;7.510;2023-05-10T08:50:06;7.03;;;4.15;;
22697;SDS011;11516;51.612;7.510;2023-05-10T08:52:32;4.40;;;3.30;;
22697;SDS011;11516;51.612;7.510;2023-05-10T08:55:01;4.60;;;3.83;;
22697;SDS011;11516;51.612;7.510;2023-05-10T08:57:32;6.88;;;2.95;;
22697;SDS011;11516;51.612;7.510;2023-05-10T08:59:58;4.00;;;2.42;;
22697;SDS011;11516;51.612;7.510;2023-05-10T09:02:25;3.72;;;2.63;;
22697;SDS011;11516;51.612;7.510;2023-05-10T09:04:51;4.72;;;3.55;;
22697;SDS011;11516;51.612;7.510;2023-05-10T09:07:17;3.10;;;2.57;;
22697;SDS011;11516;51.612;7.510;2023-05-10T09:09:43;4.13;;;3.70;;
22697;SDS011;11516;51.612;7.510;2023-05-10T09:12:10;6.30;;;4.40;;
22697;SDS011;11516;51.612;7.510;2023-05-10T09:14:37;5.35;;;3.97;;
22697;SDS011;11516;51.612;7.510;2023-05-10T09:17:03;8.98;;;4.78;;
22697;SDS011;11516;51.612;7.510;2023-05-10T09:19:29;6.57;;;3.35;;
22697;SDS011;11516;51.612;7.510;2023-05-10T09:21:55;7.80;;;4.60;;
22697;SDS011;11516;51.612;7.510;2023-05-10T10:23:54;3.33;;;1.80;;
22697;SDS011;11516;51.612;7.510;2023-05-10T10:26:20;1.85;;;1.38;;
22697;SDS011;11516;51.612;7.510;2023-05-10T10:28:51;2.88;;;2.67;;
22697;SDS011;11516;51.612;7.510;2023-05-10T10:31:38;0.57;;;0.57;;
22697;SDS011;11516;51.612;7.510;2023-05-10T10:34:25;1.50;;;1.40;;
22697;SDS011;11516;51.612;7.510;2023-05-10T10:36:55;2.17;;;1.40;;
22697;SDS011;11516;51.612;7.510;2023-05-10T10:39:22;1.65;;;0.85;;
22697;SDS011;11516;51.612;7.510;2023-05-10T10:41:51;1.15;;;0.70;;
22697;SDS011;11516;51.612;7.510;2023-05-10T10:50:02;0.98;;;0.95;;
22697;SDS011;11516;51.612;7.510;2023-05-10T10:52:39;3.35;;;1.40;;
22697;SDS011;11516;51.612;7.510;2023-05-10T10:55:09;2.38;;;1.98;;
22697;SDS011;11516;51.612;7.510;2023-05-10T11:03:09;8.88;;;2.28;;
22697;SDS011;11516;51.612;7.510;2023-05-10T11:05:40;3.67;;;2.20;;
22697;SDS011;11516;51.612;7.510;2023-05-10T11:08:16;2.53;;;2.28;;
22697;SDS011;11516;51.612;7.510;2023-05-10T11:13:29;2.88;;;2.28;;
22697;SDS011;11516;51.612;7.510;2023-05-10T11:16:18;3.22;;;2.92;;
22697;SDS011;11516;51.612;7.510;2023-05-10T11:18:59;2.75;;;2.55;;
22697;SDS011;11516;51.612;7.510;2023-05-10T11:21:30;3.97;;;3.40;;
22697;SDS011;11516;51.612;7.510;2023-05-10T11:23:58;4.63;;;2.67;;
22697;SDS011;11516;51.612;7.510;2023-05-10T11:26:25;3.20;;;2.55;;
22697;SDS011;11516;51.612;7.510;2023-05-10T11:28:59;2.45;;;2.28;;
22697;SDS011;11516;51.612;7.510;2023-05-10T11:31:26;4.03;;;2.22;;
22697;SDS011;11516;51.612;7.510;2023-05-10T11:33:53;4.45;;;3.22;;
22697;SDS011;11516;51.612;7.510;2023-05-10T11:36:26;2.20;;;2.03;;
22697;SDS011;11516;51.612;7.510;2023-05-10T11:38:53;2.33;;;2.22;;
22697;SDS011;11516;51.612;7.510;2023-05-10T11:41:20;3.28;;;2.45;;
22697;SDS011;11516;51.612;7.510;2023-05-10T11:43:47;5.35;;;2.63;;
22697;SDS011;11516;51.612;7.510;2023-05-10T11:46:14;2.90;;;2.25;;
22697;SDS011;11516;51.612;7.510;2023-05-10T11:48:42;2.08;;;1.90;;
22697;SDS011;11516;51.612;7.510;2023-05-10T11:51:08;1.52;;;1.20;;
22697;SDS011;11516;51.612;7.510;2023-05-10T11:53:35;2.03;;;1.92;;
22697;SDS011;11516;51.612;7.510;2023-05-10T11:56:07;1.20;;;1.20;;
22697;SDS011;11516;51.612;7.510;2023-05-10T11:58:35;1.57;;;1.47;;
22697;SDS011;11516;51.612;7.510;2023-05-10T12:01:02;1.55;;;1.50;;
22697;SDS011;11516;51.612;7.510;2023-05-10T12:03:29;1.83;;;1.73;;
22697;SDS011;11516;51.612;7.510;2023-05-10T12:05:55;1.15;;;0.95;;
22697;SDS011;11516;51.612;7.510;2023-05-10T12:08:22;1.55;;;1.50;;
22697;SDS011;11516;51.612;7.510;2023-05-10T12:10:48;2.10;;;1.92;;
22697;SDS011;11516;51.612;7.510;2023-05-10T12:13:14;27.27;;;24.13;;
22697;SDS011;11516;51.612;7.510;2023-05-10T12:15:40;30.73;;;26.17;;
22697;SDS011;11516;51.612;7.510;2023-05-10T12:18:10;30.88;;;26.65;;
22697;SDS011;11516;51.612;7.510;2023-05-10T12:20:37;27.52;;;24.50;;
22697;SDS011;11516;51.612;7.510;2023-05-10T12:23:03;26.27;;;23.35;;
22697;SDS011;11516;51.612;7.510;2023-05-10T12:25:32;28.47;;;24.20;;
22697;SDS011;11516;51.612;7.510;2023-05-10T12:27:59;28.80;;;24.83;;
22697;SDS011;11516;51.612;7.510;2023-05-10T12:30:30;27.73;;;23.53;;
22697;SDS011;11516;51.612;7.510;2023-05-10T12:33:10;28.73;;;24.53;;
22697;SDS011;11516;51.612;7.510;2023-05-10T12:35:51;27.50;;;22.77;;
22697;SDS011;11516;51.612;7.510;2023-05-10T12:38:27;25.00;;;21.67;;
22697;SDS011;11516;51.612;7.510;2023-05-10T12:41:01;24.98;;;21.58;;
22697;SDS011;11516;51.612;7.510;2023-05-10T12:43:28;22.88;;;20.38;;
22697;SDS011;11516;51.612;7.510;2023-05-10T12:45:54;23.70;;;21.00;;
22697;SDS011;11516;51.612;7.510;2023-05-10T12:48:20;24.93;;;21.20;;
22697;SDS011;11516;51.612;7.510;2023-05-10T12:50:45;24.10;;;20.40;;
22697;SDS011;11516;51.612;7.510;2023-05-10T12:53:13;22.20;;;19.50;;
22697;SDS011;11516;51.612;7.510;2023-05-10T12:55:40;19.97;;;17.33;;
22697;SDS011;11516;51.612;7.510;2023-05-10T12:58:06;18.48;;;16.08;;
22697;SDS011;11516;51.612;7.510;2023-05-10T13:00:32;18.55;;;14.65;;
22697;SDS011;11516;51.612;7.510;2023-05-10T13:02:57;16.20;;;11.43;;
22697;SDS011;11516;51.612;7.510;2023-05-10T13:05:23;13.43;;;10.30;;
22697;SDS011;11516;51.612;7.510;2023-05-10T13:07:48;14.07;;;11.40;;
22697;SDS011;11516;51.612;7.510;2023-05-10T13:10:14;11.98;;;10.27;;
22697;SDS011;11516;51.612;7.510;2023-05-10T13:12:40;11.25;;;9.70;;
22697;SDS011;11516;51.612;7.510;2023-05-10T13:15:06;11.93;;;10.30;;
22697;SDS011;11516;51.612;7.510;2023-05-10T13:17:32;12.13;;;9.80;;
22697;SDS011;11516;51.612;7.510;2023-05-10T13:19:58;10.98;;;9.75;;
22697;SDS011;11516;51.612;7.510;2023-05-10T13:22:23;12.20;;;9.20;;
22697;SDS011;11516;51.612;7.510;2023-05-10T13:24:49;9.60;;;8.43;;
22697;SDS011;11516;51.612;7.510;2023-05-10T13:27:14;11.40;;;8.57;;
22697;SDS011;11516;51.612;7.510;2023-05-10T13:29:40;10.32;;;8.65;;
22697;SDS011;11516;51.612;7.510;2023-05-10T13:32:05;11.93;;;8.93;;
22697;SDS011;11516;51.612;7.510;2023-05-10T13:34:31;10.73;;;7.95;;
22697;SDS011;11516;51.612;7.510;2023-05-10T13:36:56;12.10;;;8.23;;
22697;SDS011;11516;51.612;7.510;2023-05-10T13:39:22;9.67;;;7.73;;
22697;SDS011;11516;51.612;7.510;2023-05-10T13:41:48;8.77;;;7.30;;
22697;SDS011;11516;51.612;7.510;2023-05-10T13:44:14;9.90;;;7.70;;
22697;SDS011;11516;51.612;7.510;2023-05-10T13:46:40;11.77;;;9.68;;
22697;SDS011;11516;51.612;7.510;2023-05-10T13:49:08;11.93;;;9.90;;
22697;SDS011;11516;51.612;7.510;2023-05-10T13:51:34;17.50;;;13.07;;
22697;SDS011;11516;51.612;7.510;2023-05-10T13:54:00;17.23;;;15.30;;
22697;SDS011;11516;51.612;7.510;2023-05-10T13:56:26;18.08;;;16.08;;
22697;SDS011;11516;51.612;7.510;2023-05-10T13:58:52;19.97;;;17.50;;
22697;SDS011;11516;51.612;7.510;2023-05-10T14:01:17;19.80;;;17.60;;
22697;SDS011;11516;51.612;7.510;2023-05-10T14:03:43;17.42;;;15.63;;
22697;SDS011;11516;51.612;7.510;2023-05-10T14:06:08;18.08;;;15.27;;
22697;SDS011;11516;51.612;7.510;2023-05-10T14:08:34;17.27;;;14.57;;
22697;SDS011;11516;51.612;7.510;2023-05-10T14:11:00;16.30;;;14.00;;
22697;SDS011;11516;51.612;7.510;2023-05-10T14:13:26;15.25;;;13.65;;
22697;SDS011;11516;51.612;7.510;2023-05-10T14:15:52;15.23;;;12.82;;
22697;SDS011;11516;51.612;7.510;2023-05-10T14:18:19;13.30;;;11.90;;
22697;SDS011;11516;51.612;7.510;2023-05-10T14:20:44;13.93;;;11.38;;
22697;SDS011;11516;51.612;7.510;2023-05-10T14:23:10;13.10;;;11.43;;
22697;SDS011;11516;51.612;7.510;2023-05-10T14:25:35;12.53;;;10.60;;
22697;SDS011;11516;51.612;7.510;2023-05-10T14:28:01;12.20;;;10.90;;
22697;SDS011;11516;51.612;7.510;2023-05-10T14:30:26;13.83;;;10.90;;
22697;SDS011;11516;51.612;7.510;2023-05-10T14:32:52;11.77;;;10.57;;
22697;SDS011;11516;51.612;7.510;2023-05-10T14:35:18;11.53;;;10.20;;
22697;SDS011;11516;51.612;7.510;2023-05-10T14:37:44;10.90;;;9.37;;
22697;SDS011;11516;51.612;7.510;2023-05-10T14:40:10;9.30;;;7.70;;
22697;SDS011;11516;51.612;7.510;2023-05-10T14:42:36;10.32;;;7.88;;
22697;SDS011;11516;51.612;7.510;2023-05-10T14:45:02;9.60;;;7.18;;
22697;SDS011;11516;51.612;7.510;2023-05-10T14:47:28;7.45;;;6.53;;
22697;SDS011;11516;51.612;7.510;2023-05-10T14:49:54;8.97;;;6.80;;
22697;SDS011;11516;51.612;7.510;2023-05-10T14:52:19;7.57;;;6.40;;
22697;SDS011;11516;51.612;7.510;2023-05-10T14:54:45;7.70;;;6.13;;
22697;SDS011;11516;51.612;7.510;2023-05-10T14:57:11;7.47;;;6.65;;
22697;SDS011;11516;51.612;7.510;2023-05-10T14:59:36;7.87;;;6.10;;
22697;SDS011;11516;51.612;7.510;2023-05-10T15:02:02;8.27;;;6.37;;
22697;SDS011;11516;51.612;7.510;2023-05-10T15:04:29;8.20;;;6.20;;
22697;SDS011;11516;51.612;7.510;2023-05-10T15:06:54;7.87;;;5.70;;
22697;SDS011;11516;51.612;7.510;2023-05-10T15:09:23;7.95;;;5.57;;
22697;SDS011;11516;51.612;7.510;2023-05-10T15:11:49;7.55;;;5.18;;
22697;SDS011;11516;51.612;7.510;2023-05-10T15:14:15;6.13;;;4.70;;
22697;SDS011;11516;51.612;7.510;2023-05-10T15:16:40;8.30;;;4.77;;
22697;SDS011;11516;51.612;7.510;2023-05-10T15:19:06;7.20;;;4.30;;
22697;SDS011;11516;51.612;7.510;2023-05-10T15:21:31;6.50;;;4.50;;
22697;SDS011;11516;51.612;7.510;2023-05-10T15:24:03;6.32;;;4.20;;
22697;SDS011;11516;51.612;7.510;2023-05-10T15:26:30;5.67;;;4.20;;
22697;SDS011;11516;51.612;7.510;2023-05-10T15:28:55;6.87;;;4.87;;
22697;SDS011;11516;51.612;7.510;2023-05-10T15:31:21;5.50;;;4.47;;
22697;SDS011;11516;51.612;7.510;2023-05-10T15:33:47;5.10;;;4.60;;
22697;SDS011;11516;51.612;7.510;2023-05-10T15:36:12;8.55;;;5.05;;
22697;SDS011;11516;51.612;7.510;2023-05-10T15:38:38;5.57;;;4.03;;
22697;SDS011;11516;51.612;7.510;2023-05-10T15:41:03;5.10;;;4.57;;
22697;SDS011;11516;51.612;7.510;2023-05-10T15:43:29;7.40;;;5.10;;
22697;SDS011;11516;51.612;7.510;2023-05-10T15:45:54;10.53;;;5.43;;
22697;SDS011;11516;51.612;7.510;2023-05-10T15:48:20;9.30;;;5.63;;
22697;SDS011;11516;51.612;7.510;2023-05-10T15:50:45;8.90;;;6.15;;
22697;SDS011;11516;51.612;7.510;2023-05-10T15:53:11;8.17;;;5.60;;
22697;SDS011;11516;51.612;7.510;2023-05-10T15:55:36;12.17;;;6.77;;
22697;SDS011;11516;51.612;7.510;2023-05-10T15:58:02;9.98;;;8.05;;
22697;SDS011;11516;51.612;7.510;2023-05-10T16:00:28;10.02;;;7.68;;
22697;SDS011;11516;51.612;7.510;2023-05-10T16:02:54;10.37;;;6.53;;
22697;SDS011;11516;51.612;7.510;2023-05-10T16:05:19;9.97;;;5.97;;
22697;SDS011;11516;51.612;7.510;2023-05-10T16:07:45;9.87;;;5.50;;
22697;SDS011;11516;51.612;7.510;2023-05-10T16:10:11;7.03;;;5.57;;